• Join FlightAware (Why Join?)
  • Login
  • US Flag 
12:18AM EDT


 

Airport Tracker/Info


-or-


 

Live Flight TrackerFlight Track Log ✈ N319EE ✈ 30-Sep-2013 ✈ KFRG - KROC

Flight Track Log - Related Links

Times and Time Zones

All times are in EDT time to prevent confusion due to time zone crossing. See the N319EE flight status page for this flight to view local times or setup timezone preferences in your user account.

Time Position Orientation Groundspeed Altitude Reporting Facility
EDT Latitude Longitude Course Direction KTS MPH feet Rate Location/Type
08:41PM 40.6667 -73.4333 307° West 177 204 1,800  Level New York TRACON
08:42PM 40.6833 -73.3667 72° East 187 215 3,700 1,920 Climbing New York TRACON
08:43PM 40.7167 -73.3500 21° North 159 183 5,700 1,740 Climbing New York TRACON
08:44PM 40.7667 -73.3333 14° North 173 199 7,200 1,440 Climbing New York TRACON
08:45PM 40.8000 -73.3333 360° North 178 205 8,600 1,260 Climbing New York TRACON
08:46PM 40.9365 -73.7607 307° West  Level Estimated
08:46PM 40.8500 -73.3667 333° Northwest 196 226 9,800  Level New York TRACON
08:47PM 40.8833 -73.4333 303° West 236 272 10,200 540 Climbing New York TRACON
08:48PM 40.9333 -73.5000 315° West 238 274 10,900 360 Climbing New York TRACON
08:49PM 40.9667 -73.5833 298° West 258 297 11,000  Climbing New York TRACON
08:50PM 41.0000 -73.6667 298° West 270 311 11,000 180 Level New York TRACON
08:51PM 41.0333 -73.7500 298° West 269 310 11,400 240 Climbing New York TRACON
08:53PM 41.1289 -73.9583 301° West 274 315 12,000 120 Climbing New York Center
08:54PM 41.1683 -74.0456 301° West 274 315 12,000  Level New York Center
08:55PM 41.2075 -74.1328 301° West 274 315 12,000  Level New York Center
08:56PM 41.2467 -74.2203 301° West 274 315 12,000  Level New York Center
08:57PM 41.2836 -74.3050 300° West 274 315 12,000  Level New York Center
08:58PM 41.3206 -74.3900 300° West 274 315 12,000  Level New York Center
08:59PM 41.3578 -74.4719 301° West 269 310 12,000  Level New York Center
09:00PM 41.3928 -74.5514 300° West 264 304 12,000 300 Level New York Center
09:01PM 41.4297 -74.6308 302° West 256 295 12,600 840 Climbing New York Center
09:02PM 41.4647 -74.7050 302° West 251 289 13,700 660 Climbing New York Center
09:03PM 41.4978 -74.7706 304° West 245 282 14,000 120 Climbing New York Center
09:04PM 41.5428 -74.8564 305° West 250 288 14,000  Level New York Center
09:05PM 41.5836 -74.9419 303° West 268 308 14,000  Level New York Center
09:06PM 41.6244 -75.0222 304° West 273 314 14,000  Level New York Center
09:07PM 41.6614 -75.0969 304° West 266 306 14,000  Level New York Center
09:08PM 41.7039 -75.1886 302° West 266 306 14,000  Level New York Center
09:09PM 41.7444 -75.2689 304° West 266 306 14,000  Level New York Center
09:10PM 41.7831 -75.3494 303° West 266 306 14,000  Level New York Center
09:11PM 41.8175 -75.4269 301° West 266 306 14,000  Level New York Center
09:12PM 41.8558 -75.5078 303° West 266 306 14,000  Level New York Center
09:13PM 41.9003 -75.5972 304° West 266 306 14,000  Level New York Center
09:14PM 41.9406 -75.6783 304° West 266 306 14,000  Level New York Center
09:15PM 41.9786 -75.7647 301° West 266 306 14,000  Level New York Center
09:16PM 42.0189 -75.8458 304° West 266 306 14,000  Level New York Center
09:17PM 42.0569 -75.9297 301° West 266 306 14,000  Level New York Center
09:18PM 42.0933 -76.0025 304° West 266 306 14,000  Level New York Center
09:19PM 42.1333 -76.0842 303° West 266 306 14,000  Level New York Center
09:21PM 42.2103 -76.2192 308° West 258 297 14,000  Level Cleveland Center
09:22PM 42.2592 -76.2933 312° West 260 299 14,000  Level Cleveland Center
09:23PM 42.3056 -76.3683 310° West 260 299 14,000  Level Cleveland Center
09:24PM 42.3550 -76.4453 311° West 261 300 14,000  Level Cleveland Center
09:25PM 42.4017 -76.5183 311° West 258 297 14,000  Level Cleveland Center
09:26PM 42.4592 -76.6086 311° West 264 304 14,000  Level Cleveland Center
09:27PM 42.5050 -76.6817 310° West 258 297 14,000  Level Cleveland Center
09:28PM 42.5519 -76.7564 310° West 258 297 14,000  Level Cleveland Center
09:29PM 42.6072 -76.8439 311° West 260 299 14,000 -60 Level Cleveland Center
09:30PM 42.6456 -76.9056 310° West 258 297 13,900 -360 Descending Cleveland Center
09:31PM 42.6611 -76.9292 312° West 262 302 13,600 -1,020 Descending Cleveland Center
09:31PM 42.6939 -76.9836 309° West 267 307 12,900 -1,140 Descending Cleveland Center
09:32PM 42.7153 -77.0144 313° West 278 320 12,500 -1,500 Descending Cleveland Center
09:32PM 42.7544 -77.0800 309° West 278 320 11,400 -1,380 Descending Cleveland Center
09:33PM 42.7653 -77.0964 312° West 281 323 11,100 -1,200 Descending Cleveland Center
09:33PM 42.8033 -77.1600 309° West 278 320 10,200 -1,200 Descending Cleveland Center
09:34PM 42.8156 -77.1781 313° West 279 321 9,900 -1,320 Descending Cleveland Center
09:34PM 42.8519 -77.2381 310° West 274 315 8,900 -1,380 Descending Cleveland Center
09:35PM 42.8622 -77.2536 312° West 255 293 8,500 -1,500 Descending Cleveland Center
09:35PM 42.8958 -77.3083 310° West 255 293 7,400 -1,380 Descending Cleveland Center
09:36PM 42.9078 -77.3231 318° Northwest 241 277 7,100 -1,500 Descending Cleveland Center
09:36PM 42.9308 -77.3819 298° West 241 277 5,900 -1,560 Descending Cleveland Center
09:37PM 42.9356 -77.3967 294° West 235 270 5,700 -1,380 Descending Cleveland Center
09:38PM 42.9567 -77.4633 293° West 237 273 4,500 -1,380 Descending Cleveland Center
09:38PM 42.9622 -77.4786 296° West 230 265 4,300 -1,020 Descending Cleveland Center
09:39PM 42.9864 -77.5533 294° West 225 259 3,500 -840 Descending Cleveland Center
09:40PM 43.0097 -77.6203 296° West 206 237 2,700 -660 Descending Cleveland Center
09:41PM 43.0372 -77.6689 308° West 146 168 2,200 -540 Descending Cleveland Center
09:41PM 43.0356 -77.6689 180° South 172 198 2,200 -720 Level Cleveland Center
09:41PM 43.0611 -77.7100 310° West 150 173 1,600 -720 Descending Cleveland Center
09:42PM 43.0619 -77.7136 288° West 160 184 1,500 -720 Descending Cleveland Center
09:43PM 43.0983 -77.6928 23° Northeast 147 169 800 -540 Descending Cleveland Center
09:44PM 43.1233 -77.6722 31° Northeast 137 158 500 -300 Descending Cleveland Center